createdAt,value
2023-03-28T00:00:13.988Z,100697.47
2023-03-28T00:02:15.381Z,100691.75
2023-03-28T00:04:17.393Z,100689.97
2023-03-28T00:06:19.086Z,100694.50
2023-03-28T00:08:20.964Z,100695.59
2023-03-28T00:10:22.677Z,100700.78
2023-03-28T00:12:24.792Z,100704.06
2023-03-28T00:14:26.318Z,100703.59
2023-03-28T00:16:32.162Z,100706.34
2023-03-28T00:18:37.579Z,100703.19
2023-03-28T00:20:40.529Z,100704.03
2023-03-28T00:22:41.879Z,100709.22
2023-03-28T00:24:44.490Z,100701.72
2023-03-28T00:26:46.000Z,100706.91
2023-03-28T00:28:47.860Z,100717.72
2023-03-28T00:30:49.242Z,100710.09
2023-03-28T00:32:51.037Z,100713.88
2023-03-28T00:34:52.697Z,100706.63
2023-03-28T00:36:55.163Z,100707.41
2023-03-28T00:38:57.847Z,100714.41
2023-03-28T00:40:59.719Z,100714.66
2023-03-28T00:43:01.098Z,100715.63
2023-03-28T00:45:02.573Z,100714.78
2023-03-28T00:47:05.616Z,100731.31
2023-03-28T00:49:13.143Z,100717.66
2023-03-28T00:51:16.166Z,100711.75
2023-03-28T00:53:21.296Z,100714.75
2023-03-28T00:55:48.794Z,100717.66
2023-03-28T00:57:51.248Z,100710.41
2023-03-28T00:59:53.087Z,100712.88
2023-03-28T01:01:55.605Z,100713.69
2023-03-28T01:04:05.331Z,100704.09
2023-03-28T01:06:09.266Z,100710.34
2023-03-28T01:08:30.294Z,100705.88
2023-03-28T01:10:32.825Z,100713.66
2023-03-28T01:12:34.441Z,100710.75
2023-03-28T01:14:39.141Z,100712.16
2023-03-28T01:16:41.488Z,100707.31
2023-03-28T01:18:51.519Z,100711.94
2023-03-28T01:21:05.249Z,100711.25
2023-03-28T01:23:23.981Z,100711.66
2023-03-28T01:26:02.356Z,100709.16
2023-03-28T01:28:16.270Z,100713.53
2023-03-28T01:30:26.550Z,100709.53
2023-03-28T01:32:53.979Z,100708.59
2023-03-28T01:35:17.225Z,100712.13
2023-03-28T01:37:46.921Z,100707.56
2023-03-28T01:40:12.587Z,100707.00
2023-03-28T01:42:29.264Z,100708.75
2023-03-28T01:44:56.786Z,100711.50
2023-03-28T01:47:22.989Z,100718.72
2023-03-28T01:49:47.557Z,100723.34
2023-03-28T01:51:57.542Z,100718.97
2023-03-28T01:54:08.636Z,100725.34
2023-03-28T01:56:22.250Z,100723.69
2023-03-28T01:58:38.780Z,100722.19
2023-03-28T02:00:43.388Z,100719.00
2023-03-28T02:02:57.057Z,100718.31
2023-03-28T02:05:04.275Z,100722.66
2023-03-28T02:07:08.903Z,100722.81
2023-03-28T02:09:12.877Z,100717.88
2023-03-28T02:11:14.749Z,100715.28
2023-03-28T02:13:25.250Z,100711.97
2023-03-28T02:15:29.831Z,100709.50
2023-03-28T02:17:39.018Z,100708.69
2023-03-28T02:19:44.083Z,100708.69
2023-03-28T02:21:52.172Z,100704.56
2023-03-28T02:23:55.981Z,100705.75
2023-03-28T02:25:57.650Z,100704.22
2023-03-28T02:28:03.190Z,100699.16
2023-03-28T02:30:06.750Z,100698.34
2023-03-28T02:32:08.588Z,100700.22
2023-03-28T02:34:11.032Z,100689.97
2023-03-28T02:36:26.271Z,100687.63
2023-03-28T02:39:01.809Z,100696.25
2023-03-28T02:41:26.361Z,100690.22
2023-03-28T02:43:48.198Z,100696.34
2023-03-28T02:46:11.547Z,100684.56
2023-03-28T02:48:48.957Z,100685.41
2023-03-28T02:51:12.381Z,100687.88
2023-03-28T02:53:38.131Z,100682.13
2023-03-28T02:55:59.009Z,100688.09
2023-03-28T02:58:10.930Z,100689.66
2023-03-28T03:00:17.144Z,100686.59
2023-03-28T03:02:20.460Z,100688.50
2023-03-28T03:04:21.864Z,100688.72
2023-03-28T03:06:23.465Z,100685.19
2023-03-28T03:08:24.913Z,100688.59
2023-03-28T03:10:26.422Z,100688.97
2023-03-28T03:12:28.509Z,100685.31
2023-03-28T03:14:29.943Z,100684.75
2023-03-28T03:16:31.335Z,100686.50
2023-03-28T03:18:34.842Z,100678.00
2023-03-28T03:20:36.233Z,100680.84
2023-03-28T03:22:37.876Z,100680.84
2023-03-28T03:24:39.330Z,100680.75
2023-03-28T03:26:40.751Z,100680.75
2023-03-28T03:28:42.132Z,100680.75
2023-03-28T03:30:43.663Z,100685.34
2023-03-28T03:32:45.127Z,100683.56
2023-03-28T03:34:46.594Z,100684.63
2023-03-28T03:36:49.900Z,100679.56
2023-03-28T03:38:52.249Z,100682.84
2023-03-28T03:40:53.682Z,100683.94
2023-03-28T03:42:55.335Z,100686.78
2023-03-28T03:44:56.737Z,100676.41
2023-03-28T03:46:58.128Z,100676.63
2023-03-28T03:48:59.568Z,100682.63
2023-03-28T03:51:01.797Z,100686.31
2023-03-28T03:53:03.328Z,100678.63
2023-03-28T03:55:06.363Z,100689.16
2023-03-28T03:57:07.813Z,100680.66
2023-03-28T03:59:09.354Z,100687.38
2023-03-28T04:01:13.855Z,100691.00
2023-03-28T04:03:25.038Z,100692.81
2023-03-28T04:05:27.143Z,100693.41
2023-03-28T04:07:28.520Z,100702.78
2023-03-28T04:09:29.922Z,100706.56
2023-03-28T04:11:31.338Z,100713.06
2023-03-28T04:13:32.726Z,100714.59
2023-03-28T04:15:34.173Z,100710.38
2023-03-28T04:17:35.970Z,100717.31
2023-03-28T04:19:40.574Z,100719.78
2023-03-28T04:21:42.806Z,100719.69
2023-03-28T04:23:44.260Z,100717.91
2023-03-28T04:25:49.583Z,100724.97
2023-03-28T04:27:54.558Z,100721.53
2023-03-28T04:29:55.971Z,100734.88
2023-03-28T04:32:00.625Z,100727.22
2023-03-28T04:34:06.189Z,100726.28
2023-03-28T04:36:09.554Z,100725.47
2023-03-28T04:38:21.315Z,100731.72
2023-03-28T04:40:24.314Z,100724.97
2023-03-28T04:42:26.423Z,100730.88
2023-03-28T04:44:29.387Z,100731.72
2023-03-28T04:46:30.957Z,100737.94
2023-03-28T04:48:32.408Z,100742.28
2023-03-28T04:50:35.743Z,100745.72
2023-03-28T04:52:37.378Z,100748.53
2023-03-28T04:54:39.055Z,100750.06
2023-03-28T04:56:40.747Z,100745.97
2023-03-28T04:58:42.509Z,100758.09
2023-03-28T05:00:45.837Z,100752.78
2023-03-28T05:02:47.732Z,100767.53
2023-03-28T05:04:49.290Z,100758.81
2023-03-28T05:06:50.933Z,100758.91
2023-03-28T05:08:52.386Z,100764.81
2023-03-28T05:10:55.335Z,100758.69
2023-03-28T05:12:58.412Z,100754.47
2023-03-28T05:14:59.870Z,100764.00
2023-03-28T05:17:01.251Z,100755.38
2023-03-28T05:19:02.794Z,100761.84
2023-03-28T05:21:04.408Z,100758.56
2023-03-28T05:23:08.704Z,100770.69
2023-03-28T05:25:10.665Z,100768.94
2023-03-28T05:27:12.060Z,100768.00
2023-03-28T05:29:13.466Z,100764.59
2023-03-28T05:31:17.119Z,100777.88
2023-03-28T05:33:18.631Z,100775.06
2023-03-28T05:35:20.330Z,100781.06
2023-03-28T05:37:21.770Z,100784.38
2023-03-28T05:39:23.746Z,100789.78
2023-03-28T05:41:25.788Z,100786.84
2023-03-28T05:43:27.271Z,100789.94
2023-03-28T05:45:28.711Z,100788.63
2023-03-28T05:47:30.606Z,100792.53
2023-03-28T05:49:32.037Z,100790.38
2023-03-28T05:51:33.422Z,100792.03
2023-03-28T05:53:34.811Z,100782.84
2023-03-28T05:55:36.229Z,100781.06
2023-03-28T05:57:37.835Z,100784.16
2023-03-28T05:59:42.776Z,100783.06
2023-03-28T06:01:46.148Z,100775.88
2023-03-28T06:03:47.716Z,100778.13
2023-03-28T06:05:49.338Z,100783.19
2023-03-28T06:07:51.225Z,100787.75
2023-03-28T06:09:53.009Z,100787.75
2023-03-28T06:11:54.386Z,100790.34
2023-03-28T06:13:56.112Z,100790.69
2023-03-28T06:15:57.515Z,100795.28
2023-03-28T06:17:58.997Z,100797.53
2023-03-28T06:20:00.684Z,100796.19
2023-03-28T06:22:02.942Z,100798.91
2023-03-28T06:24:04.556Z,100803.72
2023-03-28T06:26:06.545Z,100803.25
2023-03-28T06:28:07.943Z,100801.91
2023-03-28T06:30:09.828Z,100800.88
2023-03-28T06:32:12.617Z,100802.59
2023-03-28T06:34:14.063Z,100813.31
2023-03-28T06:36:15.605Z,100806.78
2023-03-28T06:38:17.132Z,100800.03
2023-03-28T06:40:19.333Z,100806.38
2023-03-28T06:42:21.237Z,100807.50
2023-03-28T06:44:22.667Z,100804.53
2023-03-28T06:46:24.125Z,100806.50
2023-03-28T06:48:33.088Z,100801.47
2023-03-28T06:50:35.683Z,100809.47
2023-03-28T06:52:37.115Z,100807.88
2023-03-28T06:54:38.506Z,100810.69
2023-03-28T06:56:39.998Z,100811.56
2023-03-28T06:58:41.432Z,100808.31
2023-03-28T07:00:42.941Z,100809.44
2023-03-28T07:02:44.426Z,100812.06
2023-03-28T07:04:46.281Z,100812.34
2023-03-28T07:06:47.706Z,100814.88
2023-03-28T07:08:49.083Z,100814.38
2023-03-28T07:10:50.544Z,100818.75
2023-03-28T07:12:51.951Z,100814.66
2023-03-28T07:14:53.357Z,100816.47
2023-03-28T07:16:55.673Z,100822.53
2023-03-28T07:18:57.124Z,100823.47
2023-03-28T07:21:04.159Z,100819.13
2023-03-28T07:23:06.017Z,100822.56
2023-03-28T07:25:08.212Z,100824.34
2023-03-28T07:27:15.435Z,100822.72
2023-03-28T07:29:17.857Z,100830.50
2023-03-28T07:31:20.948Z,100830.53
2023-03-28T07:33:29.062Z,100827.38
2023-03-28T07:35:34.917Z,100829.13
2023-03-28T07:37:36.539Z,100826.53
2023-03-28T07:39:43.514Z,100822.22
2023-03-28T07:41:44.914Z,100831.00
2023-03-28T07:43:46.350Z,100830.69
2023-03-28T07:45:47.852Z,100836.31
2023-03-28T07:47:49.439Z,100832.75
2023-03-28T07:49:51.196Z,100834.19
2023-03-28T07:51:52.715Z,100825.94
2023-03-28T07:53:54.157Z,100832.94
2023-03-28T07:55:56.381Z,100834.13
2023-03-28T07:57:58.421Z,100825.19
2023-03-28T07:59:59.814Z,100828.06
2023-03-28T08:02:01.405Z,100831.56
2023-03-28T08:04:03.590Z,100833.03
2023-03-28T08:06:16.925Z,100826.78
2023-03-28T08:08:31.503Z,100828.81
2023-03-28T08:10:33.471Z,100831.38
2023-03-28T08:12:35.263Z,100819.19
2023-03-28T08:14:36.612Z,100828.78
2023-03-28T08:16:39.852Z,100821.28
2023-03-28T08:18:41.270Z,100825.56
2023-03-28T08:20:42.648Z,100820.91
2023-03-28T08:22:44.056Z,100825.59
2023-03-28T08:24:45.556Z,100822.59
2023-03-28T08:26:48.770Z,100817.56
2023-03-28T08:28:51.292Z,100816.84
2023-03-28T08:30:52.913Z,100822.56
2023-03-28T08:32:54.390Z,100822.19
2023-03-28T08:34:57.647Z,100822.59
2023-03-28T08:36:59.840Z,100813.28
2023-03-28T08:39:01.386Z,100819.81
2023-03-28T08:41:38.143Z,100810.16
2023-03-28T08:44:14.335Z,100814.38
2023-03-28T08:48:50.414Z,100826.50
2023-03-28T08:53:34.876Z,100829.09
2023-03-28T08:55:42.463Z,100816.16
2023-03-28T08:57:45.613Z,100824.34
2023-03-28T09:00:14.870Z,100818.09
2023-03-28T09:02:26.690Z,100818.63
2023-03-28T09:04:34.923Z,100823.22
2023-03-28T09:06:44.233Z,100822.06
2023-03-28T09:08:57.575Z,100827.81
2023-03-28T09:11:21.647Z,100831.41
2023-03-28T09:13:43.651Z,100835.03
2023-03-28T09:16:06.835Z,100829.28
2023-03-28T09:21:19.506Z,100828.63
2023-03-28T09:23:51.599Z,100828.47
2023-03-28T09:26:05.942Z,100820.75
2023-03-28T09:28:31.613Z,100823.69
2023-03-28T09:30:44.076Z,100815.19
2023-03-28T09:32:49.652Z,100813.84
2023-03-28T09:34:51.710Z,100814.22
2023-03-28T09:36:57.852Z,100817.31
2023-03-28T09:39:04.004Z,100816.03
2023-03-28T09:41:16.153Z,100821.31
2023-03-28T09:43:34.982Z,100820.75
2023-03-28T09:45:36.424Z,100814.00
2023-03-28T09:47:38.166Z,100818.59
2023-03-28T09:49:39.667Z,100813.06
2023-03-28T09:51:41.060Z,100816.13
2023-03-28T09:53:42.602Z,100814.50
2023-03-28T09:55:49.068Z,100794.69
2023-03-28T09:58:01.264Z,100796.41
2023-03-28T10:00:07.799Z,100793.78
2023-03-28T10:02:26.173Z,100796.84
2023-03-28T10:04:27.955Z,100792.72
2023-03-28T10:06:31.790Z,100796.84
2023-03-28T10:08:40.353Z,100803.75
2023-03-28T10:10:41.753Z,100793.06
2023-03-28T10:12:47.007Z,100795.34
2023-03-28T10:14:48.742Z,100793.13
2023-03-28T10:16:51.705Z,100797.34
2023-03-28T10:18:53.836Z,100800.09
2023-03-28T10:20:56.358Z,100797.91
2023-03-28T10:22:57.836Z,100789.56
2023-03-28T10:25:00.624Z,100795.66
2023-03-28T10:27:18.865Z,100795.69
2023-03-28T10:29:21.698Z,100791.13
2023-03-28T10:31:32.020Z,100782.81
2023-03-28T10:33:36.514Z,100776.13
2023-03-28T10:35:41.478Z,100770.84
2023-03-28T10:37:43.160Z,100769.97
2023-03-28T10:39:58.328Z,100768.69
2023-03-28T10:42:01.130Z,100768.50
2023-03-28T10:44:17.740Z,100772.31
2023-03-28T10:46:40.980Z,100760.19
2023-03-28T10:48:56.008Z,100764.47
2023-03-28T10:51:00.670Z,100752.19
2023-03-28T10:53:10.538Z,100753.06
2023-03-28T10:55:18.338Z,100751.03
2023-03-28T10:57:33.566Z,100759.00
2023-03-28T11:00:03.680Z,100755.03
2023-03-28T11:02:13.974Z,100749.84
2023-03-28T11:04:19.638Z,100745.13
2023-03-28T11:06:36.888Z,100751.38
2023-03-28T11:08:58.051Z,100740.59
2023-03-28T11:11:44.586Z,100737.75
2023-03-28T11:14:14.333Z,100747.84
2023-03-28T11:16:25.840Z,100734.72
2023-03-28T11:18:53.426Z,100732.03
2023-03-28T11:21:00.872Z,100727.00
2023-03-28T11:23:31.904Z,100729.81
2023-03-28T11:25:49.973Z,100729.72
2023-03-28T11:28:05.678Z,100720.38
2023-03-28T11:30:20.883Z,100715.50
2023-03-28T11:32:30.304Z,100711.19
2023-03-28T11:34:41.496Z,100717.94
2023-03-28T11:36:55.398Z,100708.28
2023-03-28T11:39:03.286Z,100714.16
2023-03-28T11:41:13.156Z,100706.16
2023-03-28T11:43:25.569Z,100704.88
2023-03-28T11:45:51.246Z,100704.94
2023-03-28T11:48:05.637Z,100701.38
2023-03-28T11:50:17.269Z,100687.41
2023-03-28T11:52:28.206Z,100689.09
2023-03-28T11:54:41.497Z,100688.50
2023-03-28T11:56:42.837Z,100679.47
2023-03-28T11:58:48.870Z,100667.38
2023-03-28T12:01:09.007Z,100673.75
2023-03-28T12:03:31.585Z,100656.22
2023-03-28T12:05:41.947Z,100650.53
2023-03-28T12:07:54.438Z,100653.22
2023-03-28T12:10:09.510Z,100644.97
2023-03-28T12:12:21.439Z,100636.72
2023-03-28T12:14:58.680Z,100629.69
2023-03-28T12:17:15.042Z,100620.47
2023-03-28T12:19:42.634Z,100624.06
2023-03-28T12:21:49.269Z,100615.06
2023-03-28T12:24:36.191Z,100613.16
2023-03-28T12:26:55.515Z,100605.78
2023-03-28T12:29:08.497Z,100600.19
2023-03-28T12:31:18.478Z,100596.28
2023-03-28T12:33:38.713Z,100595.31
2023-03-28T12:36:42.774Z,100597.53
2023-03-28T12:38:55.668Z,100588.00
2023-03-28T12:41:06.535Z,100588.63
2023-03-28T12:43:12.489Z,100588.59
2023-03-28T12:45:22.925Z,100599.00
2023-03-28T12:47:31.893Z,100589.84
2023-03-28T12:49:45.502Z,100578.84
2023-03-28T12:51:50.765Z,100582.94
2023-03-28T12:54:08.303Z,100587.00
2023-03-28T12:56:13.575Z,100587.00
2023-03-28T12:58:22.783Z,100590.88
2023-03-28T13:00:48.037Z,100583.13
2023-03-28T13:03:01.789Z,100588.81
2023-03-28T13:05:29.634Z,100575.59
2023-03-28T13:07:56.052Z,100576.59
2023-03-28T13:10:21.375Z,100564.41
2023-03-28T13:12:22.743Z,100567.25
2023-03-28T13:14:35.674Z,100571.47
2023-03-28T13:16:55.505Z,100560.09
2023-03-28T13:19:10.974Z,100548.50
2023-03-28T13:21:12.559Z,100551.66
2023-03-28T13:23:16.508Z,100545.78
2023-03-28T13:25:28.322Z,100548.81
2023-03-28T13:27:34.301Z,100543.75
2023-03-28T13:29:50.918Z,100535.56
2023-03-28T13:32:03.629Z,100530.69
2023-03-28T13:34:05.301Z,100525.19
2023-03-28T13:36:10.359Z,100513.44
2023-03-28T13:38:14.871Z,100508.28
2023-03-28T13:40:41.182Z,100497.22
2023-03-28T13:42:59.614Z,100494.31
2023-03-28T13:45:13.616Z,100498.91
2023-03-28T13:47:26.174Z,100494.66
2023-03-28T13:49:30.411Z,100494.94
2023-03-28T13:51:39.914Z,100491.81
2023-03-28T13:53:47.733Z,100489.38
2023-03-28T13:56:07.326Z,100476.00
2023-03-28T13:58:12.366Z,100477.78
2023-03-28T14:00:16.965Z,100462.56
2023-03-28T14:02:22.344Z,100467.47
2023-03-28T14:04:27.042Z,100458.88
2023-03-28T14:06:30.477Z,100470.59
2023-03-28T14:08:33.243Z,100455.63
2023-03-28T14:10:39.434Z,100448.28
2023-03-28T14:12:40.934Z,100466.59
2023-03-28T14:14:51.632Z,100458.41
2023-03-28T14:16:53.793Z,100453.53
2023-03-28T14:18:55.472Z,100464.91
2023-03-28T14:20:57.111Z,100455.56
2023-03-28T14:23:00.985Z,100455.53
2023-03-28T14:25:10.584Z,100461.97
2023-03-28T14:27:26.234Z,100447.56
2023-03-28T14:29:27.643Z,100441.41
2023-03-28T14:31:30.196Z,100440.88
2023-03-28T14:33:37.055Z,100435.13
2023-03-28T14:35:40.257Z,100442.66
2023-03-28T14:37:53.239Z,100438.56
2023-03-28T14:39:55.179Z,100426.94
2023-03-28T14:41:59.517Z,100414.16
2023-03-28T14:44:02.125Z,100410.16
2023-03-28T14:46:09.195Z,100409.06
2023-03-28T14:48:19.044Z,100400.66
2023-03-28T14:50:21.866Z,100403.66
2023-03-28T14:52:31.605Z,100410.19
2023-03-28T14:54:40.877Z,100403.16
2023-03-28T14:56:44.774Z,100388.53
2023-03-28T14:58:49.856Z,100393.41
2023-03-28T15:00:59.855Z,100391.88
2023-03-28T15:03:03.363Z,100389.69
2023-03-28T15:05:09.452Z,100389.97
2023-03-28T15:07:21.057Z,100381.75
2023-03-28T15:09:40.629Z,100376.91
2023-03-28T15:11:43.624Z,100369.47
2023-03-28T15:13:47.900Z,100364.16
2023-03-28T15:15:49.676Z,100356.06
2023-03-28T15:17:53.747Z,100345.16
2023-03-28T15:19:58.509Z,100340.44
2023-03-28T15:22:15.758Z,100334.28
2023-03-28T15:24:18.729Z,100323.38
2023-03-28T15:26:26.040Z,100320.00
2023-03-28T15:28:28.535Z,100330.84
2023-03-28T15:30:34.889Z,100326.09
2023-03-28T15:32:36.736Z,100318.44
2023-03-28T15:34:56.391Z,100318.19
2023-03-28T15:37:03.396Z,100317.84
2023-03-28T15:39:19.207Z,100321.09
2023-03-28T15:41:47.860Z,100308.63
2023-03-28T15:43:52.385Z,100302.91
2023-03-28T15:46:00.998Z,100293.59
2023-03-28T15:48:02.683Z,100286.53
2023-03-28T15:50:08.633Z,100283.19
2023-03-28T15:52:19.965Z,100283.78
2023-03-28T15:54:31.309Z,100286.03
2023-03-28T15:56:36.934Z,100277.75
2023-03-28T15:58:44.322Z,100280.75
2023-03-28T16:00:45.977Z,100273.63
2023-03-28T16:02:47.423Z,100276.44
2023-03-28T16:05:09.908Z,100273.66
2023-03-28T16:07:12.496Z,100266.56
2023-03-28T16:09:25.097Z,100271.88
2023-03-28T16:11:27.089Z,100261.47
2023-03-28T16:13:29.566Z,100272.34
2023-03-28T16:15:32.639Z,100271.03
2023-03-28T16:17:34.361Z,100274.22
2023-03-28T16:19:37.170Z,100268.09
2023-03-28T16:21:38.581Z,100278.44
2023-03-28T16:23:40.231Z,100285.13
2023-03-28T16:25:42.738Z,100271.50
2023-03-28T16:27:44.447Z,100269.84
2023-03-28T16:29:46.336Z,100261.47
2023-03-28T16:31:47.893Z,100262.66
2023-03-28T16:33:49.334Z,100266.66
2023-03-28T16:35:52.504Z,100251.94
2023-03-28T16:37:54.825Z,100256.16
2023-03-28T16:39:56.763Z,100262.63
2023-03-28T16:41:58.241Z,100258.38
2023-03-28T16:43:59.751Z,100262.75
2023-03-28T16:46:01.602Z,100262.34
2023-03-28T16:48:03.481Z,100260.97
2023-03-28T16:50:06.498Z,100259.66
2023-03-28T16:52:07.998Z,100255.78
2023-03-28T16:54:10.159Z,100251.38
2023-03-28T16:56:15.370Z,100241.66
2023-03-28T16:58:17.352Z,100247.03
2023-03-28T17:00:19.926Z,100249.91
2023-03-28T17:02:21.572Z,100238.97
2023-03-28T17:04:23.045Z,100239.03
2023-03-28T17:06:25.021Z,100236.41
2023-03-28T17:08:26.478Z,100235.59
2023-03-28T17:10:29.506Z,100241.28
2023-03-28T17:12:31.782Z,100243.94
2023-03-28T17:14:33.351Z,100234.81
2023-03-28T17:16:34.855Z,100241.50
2023-03-28T17:18:36.681Z,100237.00
2023-03-28T17:20:38.110Z,100232.38
2023-03-28T17:22:39.586Z,100233.53
2023-03-28T17:24:41.043Z,100230.69
2023-03-28T17:26:42.440Z,100228.25
2023-03-28T17:28:44.768Z,100233.31
2023-03-28T17:30:46.585Z,100227.81
2023-03-28T17:32:48.370Z,100234.88
2023-03-28T17:34:49.786Z,100232.22
2023-03-28T17:36:53.343Z,100232.22
2023-03-28T17:38:57.534Z,100220.59
2023-03-28T17:40:58.905Z,100224.03
2023-03-28T17:43:00.487Z,100224.84
2023-03-28T17:45:01.970Z,100218.34
2023-03-28T17:47:03.641Z,100221.34
2023-03-28T17:49:07.989Z,100214.59
2023-03-28T17:51:10.906Z,100218.81
2023-03-28T17:53:12.311Z,100221.19
2023-03-28T17:55:13.769Z,100217.75
2023-03-28T17:57:15.193Z,100224.41
2023-03-28T17:59:17.207Z,100216.47
2023-03-28T18:01:19.812Z,100221.31
2023-03-28T18:03:22.569Z,100219.25
2023-03-28T18:05:24.758Z,100221.69
2023-03-28T18:07:27.237Z,100216.97
2023-03-28T18:09:29.215Z,100212.09
2023-03-28T18:11:30.877Z,100204.75
2023-03-28T18:13:33.109Z,100209.56
2023-03-28T18:15:36.411Z,100217.47
2023-03-28T18:17:38.260Z,100212.59
2023-03-28T18:19:40.174Z,100208.72
2023-03-28T18:21:41.608Z,100208.47
2023-03-28T18:23:43.389Z,100201.22
2023-03-28T18:25:44.761Z,100202.16
2023-03-28T18:27:46.190Z,100194.44
2023-03-28T18:29:49.233Z,100196.22
2023-03-28T18:31:51.130Z,100196.41
2023-03-28T18:33:54.574Z,100189.09
2023-03-28T18:35:56.810Z,100190.25
2023-03-28T18:37:58.710Z,100187.19
2023-03-28T18:40:00.428Z,100188.00
2023-03-28T18:42:04.647Z,100190.84
2023-03-28T18:44:06.391Z,100187.97
2023-03-28T18:46:08.734Z,100184.72
2023-03-28T18:48:10.328Z,100186.75
2023-03-28T18:50:12.590Z,100177.81
2023-03-28T18:52:14.019Z,100182.47
2023-03-28T18:54:16.433Z,100169.69
2023-03-28T18:56:18.754Z,100173.50
2023-03-28T18:58:23.272Z,100171.69
2023-03-28T19:00:24.995Z,100169.44
2023-03-28T19:02:28.558Z,100173.63
2023-03-28T19:04:30.312Z,100168.38
2023-03-28T19:06:31.803Z,100167.56
2023-03-28T19:08:33.747Z,100175.81
2023-03-28T19:10:35.905Z,100176.22
2023-03-28T19:12:38.068Z,100156.81
2023-03-28T19:14:40.345Z,100163.25
2023-03-28T19:16:42.337Z,100158.19
2023-03-28T19:18:46.919Z,100153.91
2023-03-28T19:20:50.754Z,100151.50
2023-03-28T19:22:55.874Z,100157.75
2023-03-28T19:24:58.238Z,100151.66
2023-03-28T19:27:02.577Z,100153.47
2023-03-28T19:29:06.462Z,100152.66
2023-03-28T19:31:11.548Z,100147.41
2023-03-28T19:33:14.067Z,100151.22
2023-03-28T19:35:16.762Z,100151.84
2023-03-28T19:37:19.072Z,100158.13
2023-03-28T19:39:21.159Z,100155.50
2023-03-28T19:41:24.975Z,100160.75
2023-03-28T19:43:28.816Z,100156.88
2023-03-28T19:45:30.487Z,100163.13
2023-03-28T19:47:31.915Z,100160.75
2023-03-28T19:49:33.408Z,100162.19
2023-03-28T19:51:35.087Z,100161.81
2023-03-28T19:53:36.654Z,100172.69
2023-03-28T19:55:38.083Z,100174.34
2023-03-28T19:57:39.534Z,100179.16
2023-03-28T19:59:41.054Z,100185.22
2023-03-28T20:01:42.492Z,100164.56
2023-03-28T20:03:44.103Z,100184.34
2023-03-28T20:05:47.462Z,100176.81
2023-03-28T20:07:48.850Z,100153.16
2023-03-28T20:09:50.325Z,100157.03
2023-03-28T20:11:52.822Z,100174.22
2023-03-28T20:13:54.267Z,100183.59
2023-03-28T20:15:56.184Z,100180.88
2023-03-28T20:17:57.665Z,100190.50
2023-03-28T20:19:59.109Z,100189.44
2023-03-28T20:22:00.670Z,100184.09
2023-03-28T20:24:02.068Z,100184.47
2023-03-28T20:26:25.817Z,100188.84
2023-03-28T20:28:32.500Z,100182.75
2023-03-28T20:30:33.959Z,100174.81
2023-03-28T20:32:35.433Z,100167.38
2023-03-28T20:34:37.038Z,100165.28
2023-03-28T20:36:41.248Z,100174.91
2023-03-28T20:38:42.707Z,100169.44
2023-03-28T20:40:44.138Z,100170.03
2023-03-28T20:42:45.604Z,100159.06
2023-03-28T20:44:47.448Z,100167.94
2023-03-28T20:46:49.029Z,100168.75
2023-03-28T20:48:52.672Z,100164.88
2023-03-28T20:50:54.628Z,100165.84
2023-03-28T20:52:56.093Z,100158.50
2023-03-28T20:54:58.496Z,100159.69
2023-03-28T20:56:59.903Z,100158.72
2023-03-28T20:59:01.333Z,100159.53
2023-03-28T21:01:04.029Z,100151.22
2023-03-28T21:03:07.612Z,100149.94
2023-03-28T21:05:09.606Z,100161.41
2023-03-28T21:07:11.166Z,100154.38
2023-03-28T21:09:17.759Z,100162.97
2023-03-28T21:11:22.476Z,100155.28
2023-03-28T21:13:24.249Z,100159.41
2023-03-28T21:15:27.940Z,100165.19
2023-03-28T21:17:29.486Z,100154.88
2023-03-28T21:19:31.044Z,100156.78
2023-03-28T21:21:33.220Z,100154.69
2023-03-28T21:23:37.222Z,100151.72
2023-03-28T21:25:42.146Z,100150.25
2023-03-28T21:27:43.660Z,100146.72
2023-03-28T21:29:45.180Z,100146.72
2023-03-28T21:31:47.113Z,100138.84
2023-03-28T21:33:49.034Z,100128.16
2023-03-28T21:35:51.728Z,100127.97
2023-03-28T21:37:53.139Z,100131.88
2023-03-28T21:39:54.524Z,100131.06
2023-03-28T21:41:56.170Z,100124.25
2023-03-28T21:43:57.599Z,100124.25
2023-03-28T21:45:59.197Z,100121.34
2023-03-28T21:48:00.819Z,100123.44
2023-03-28T21:50:03.036Z,100123.81
2023-03-28T21:52:04.817Z,100119.91
2023-03-28T21:54:06.488Z,100120.53
2023-03-28T21:56:09.107Z,100110.13
2023-03-28T21:58:10.847Z,100104.72
2023-03-28T22:00:14.830Z,100107.84
2023-03-28T22:02:16.929Z,100111.81
2023-03-28T22:04:19.024Z,100101.53
2023-03-28T22:06:20.630Z,100108.66
2023-03-28T22:08:22.366Z,100099.00
2023-03-28T22:10:26.577Z,100098.72
2023-03-28T22:12:30.751Z,100098.59
2023-03-28T22:14:33.964Z,100104.50
2023-03-28T22:16:38.401Z,100102.03
2023-03-28T22:18:41.275Z,100096.81
2023-03-28T22:20:43.690Z,100098.16
2023-03-28T22:22:48.412Z,100093.56
2023-03-28T22:24:49.820Z,100099.31
2023-03-28T22:26:51.528Z,100093.06
2023-03-28T22:28:54.707Z,100085.22
2023-03-28T22:30:56.709Z,100087.66
2023-03-28T22:32:58.556Z,100087.72
2023-03-28T22:35:00.033Z,100085.09
2023-03-28T22:37:01.501Z,100078.06
2023-03-28T22:39:02.951Z,100080.88
2023-03-28T22:41:04.996Z,100076.97
2023-03-28T22:43:06.441Z,100073.53
2023-03-28T22:45:08.292Z,100071.63
2023-03-28T22:47:09.835Z,100078.47
2023-03-28T22:49:12.999Z,100057.97
2023-03-28T22:51:15.724Z,100052.28
2023-03-28T22:53:18.110Z,100062.41
2023-03-28T22:55:22.198Z,100052.81
2023-03-28T22:57:23.974Z,100056.91
2023-03-28T22:59:25.692Z,100054.09
2023-03-28T23:01:28.760Z,100050.38
2023-03-28T23:03:30.335Z,100045.78
2023-03-28T23:05:31.959Z,100043.50
2023-03-28T23:07:37.978Z,100044.31
2023-03-28T23:09:41.568Z,100039.91
2023-03-28T23:11:43.102Z,100039.44
2023-03-28T23:13:44.513Z,100036.00
2023-03-28T23:15:45.933Z,100036.47
2023-03-28T23:17:47.547Z,100037.66
2023-03-28T23:19:50.247Z,100034.38
2023-03-28T23:21:51.710Z,100034.22
2023-03-28T23:23:53.198Z,100031.94
2023-03-28T23:25:54.606Z,100021.38
2023-03-28T23:27:56.125Z,100020.47
2023-03-28T23:29:57.583Z,100010.69
2023-03-28T23:31:59.068Z,100003.28
2023-03-28T23:34:00.696Z,99999.25
2023-03-28T23:36:02.273Z,100001.84
2023-03-28T23:38:05.048Z,99990.56
2023-03-28T23:40:14.861Z,99994.06
2023-03-28T23:42:16.840Z,99985.50
2023-03-28T23:44:18.334Z,99981.63
2023-03-28T23:46:19.922Z,99974.75
2023-03-28T23:48:21.932Z,99969.69
2023-03-28T23:50:23.375Z,99966.91
2023-03-28T23:52:24.763Z,99968.84
2023-03-28T23:54:26.518Z,99961.66
2023-03-28T23:56:27.898Z,99967.06
2023-03-28T23:58:29.304Z,99963.63
